sensor_id;sensor_type;location;lat;lon;timestamp;P1;durP1;ratioP1;P2;durP2;ratioP2
79454;SDS011;68900;52.134;5.420;2023-05-10T02:11:39;41.03;;;15.00;;
79454;SDS011;68900;52.134;5.420;2023-05-10T02:52:44;44.33;;;16.63;;
79454;SDS011;68900;52.134;5.420;2023-05-10T02:55:19;41.38;;;16.15;;
79454;SDS011;68900;52.134;5.420;2023-05-10T03:47:41;47.67;;;15.82;;
79454;SDS011;68900;52.134;5.420;2023-05-10T03:50:08;56.72;;;17.67;;
79454;SDS011;68900;52.134;5.420;2023-05-10T03:55:51;51.53;;;16.92;;
79454;SDS011;68900;52.134;5.420;2023-05-10T03:58:20;53.13;;;17.95;;
79454;SDS011;68900;52.134;5.420;2023-05-10T04:23:49;48.20;;;16.15;;
79454;SDS011;68900;52.134;5.420;2023-05-10T04:26:16;52.42;;;17.65;;
79454;SDS011;68900;52.134;5.420;2023-05-10T04:28:42;50.33;;;16.95;;
79454;SDS011;68900;52.134;5.420;2023-05-10T05:12:55;50.42;;;14.98;;
79454;SDS011;68900;52.134;5.420;2023-05-10T05:15:21;57.20;;;18.95;;
79454;SDS011;68900;52.134;5.420;2023-05-10T05:17:49;49.95;;;17.23;;
79454;SDS011;68900;52.134;5.420;2023-05-10T05:20:18;53.00;;;18.45;;
79454;SDS011;68900;52.134;5.420;2023-05-10T05:22:46;58.17;;;18.52;;
79454;SDS011;68900;52.134;5.420;2023-05-10T05:25:13;55.85;;;19.25;;
79454;SDS011;68900;52.134;5.420;2023-05-10T05:27:58;50.78;;;17.58;;
79454;SDS011;68900;52.134;5.420;2023-05-10T05:34:10;53.60;;;19.10;;
79454;SDS011;68900;52.134;5.420;2023-05-10T05:36:37;46.38;;;17.05;;
79454;SDS011;68900;52.134;5.420;2023-05-10T05:39:07;51.35;;;17.88;;
79454;SDS011;68900;52.134;5.420;2023-05-10T05:41:43;47.58;;;17.58;;
79454;SDS011;68900;52.134;5.420;2023-05-10T05:47:16;52.63;;;19.15;;
79454;SDS011;68900;52.134;5.420;2023-05-10T05:49:43;54.80;;;20.38;;
79454;SDS011;68900;52.134;5.420;2023-05-10T05:52:12;51.00;;;18.55;;
79454;SDS011;68900;52.134;5.420;2023-05-10T05:54:39;51.72;;;17.50;;
79454;SDS011;68900;52.134;5.420;2023-05-10T05:57:07;49.63;;;18.10;;
79454;SDS011;68900;52.134;5.420;2023-05-10T05:59:38;53.72;;;17.75;;
79454;SDS011;68900;52.134;5.420;2023-05-10T06:02:19;46.72;;;17.83;;
79454;SDS011;68900;52.134;5.420;2023-05-10T06:04:55;50.03;;;18.08;;
79454;SDS011;68900;52.134;5.420;2023-05-10T06:07:22;45.22;;;16.98;;
79454;SDS011;68900;52.134;5.420;2023-05-10T06:09:54;41.20;;;16.90;;
79454;SDS011;68900;52.134;5.420;2023-05-10T06:12:45;40.25;;;16.00;;
79454;SDS011;68900;52.134;5.420;2023-05-10T06:21:52;42.33;;;16.83;;
79454;SDS011;68900;52.134;5.420;2023-05-10T06:24:19;42.92;;;16.70;;
79454;SDS011;68900;52.134;5.420;2023-05-10T06:26:49;38.60;;;15.05;;
79454;SDS011;68900;52.134;5.420;2023-05-10T06:29:22;38.15;;;16.23;;
79454;SDS011;68900;52.134;5.420;2023-05-10T06:32:04;44.30;;;15.32;;
79454;SDS011;68900;52.134;5.420;2023-05-10T06:34:30;42.20;;;15.27;;
79454;SDS011;68900;52.134;5.420;2023-05-10T06:37:00;40.53;;;15.40;;
79454;SDS011;68900;52.134;5.420;2023-05-10T07:33:50;17.02;;;7.57;;
79454;SDS011;68900;52.134;5.420;2023-05-10T07:36:16;18.58;;;8.18;;
79454;SDS011;68900;52.134;5.420;2023-05-10T07:38:43;17.05;;;7.53;;
79454;SDS011;68900;52.134;5.420;2023-05-10T07:41:10;18.65;;;7.68;;
79454;SDS011;68900;52.134;5.420;2023-05-10T07:43:40;21.58;;;7.88;;
79454;SDS011;68900;52.134;5.420;2023-05-10T07:46:06;22.40;;;8.57;;
79454;SDS011;68900;52.134;5.420;2023-05-10T07:48:33;16.98;;;7.97;;
79454;SDS011;68900;52.134;5.420;2023-05-10T08:12:21;15.38;;;6.40;;
79454;SDS011;68900;52.134;5.420;2023-05-10T08:14:54;13.57;;;6.80;;
79454;SDS011;68900;52.134;5.420;2023-05-10T08:17:20;15.23;;;6.40;;
79454;SDS011;68900;52.134;5.420;2023-05-10T08:19:50;12.43;;;6.03;;
79454;SDS011;68900;52.134;5.420;2023-05-10T08:22:22;13.88;;;6.28;;
79454;SDS011;68900;52.134;5.420;2023-05-10T08:24:50;14.48;;;6.78;;
79454;SDS011;68900;52.134;5.420;2023-05-10T08:27:38;14.38;;;6.93;;
79454;SDS011;68900;52.134;5.420;2023-05-10T08:30:18;16.20;;;7.55;;
79454;SDS011;68900;52.134;5.420;2023-05-10T08:39:02;16.08;;;7.95;;
79454;SDS011;68900;52.134;5.420;2023-05-10T08:41:29;20.08;;;8.02;;
79454;SDS011;68900;52.134;5.420;2023-05-10T09:07:24;14.93;;;7.18;;
79454;SDS011;68900;52.134;5.420;2023-05-10T09:18:42;12.13;;;5.90;;
79454;SDS011;68900;52.134;5.420;2023-05-10T09:21:22;10.57;;;5.95;;
79454;SDS011;68900;52.134;5.420;2023-05-10T09:24:06;12.18;;;5.95;;
79454;SDS011;68900;52.134;5.420;2023-05-10T09:26:46;14.38;;;6.00;;
79454;SDS011;68900;52.134;5.420;2023-05-10T09:29:19;11.55;;;5.15;;
79454;SDS011;68900;52.134;5.420;2023-05-10T09:31:50;11.85;;;4.80;;
79454;SDS011;68900;52.134;5.420;2023-05-10T09:34:29;8.68;;;4.15;;
79454;SDS011;68900;52.134;5.420;2023-05-10T09:36:58;8.82;;;3.60;;
79454;SDS011;68900;52.134;5.420;2023-05-10T09:39:38;8.63;;;3.83;;
79454;SDS011;68900;52.134;5.420;2023-05-10T09:49:52;7.20;;;3.30;;
79454;SDS011;68900;52.134;5.420;2023-05-10T09:55:45;8.05;;;3.70;;
79454;SDS011;68900;52.134;5.420;2023-05-10T09:59:01;8.00;;;3.85;;
79454;SDS011;68900;52.134;5.420;2023-05-10T10:01:35;8.55;;;3.70;;
79454;SDS011;68900;52.134;5.420;2023-05-10T10:04:06;9.60;;;4.20;;
79454;SDS011;68900;52.134;5.420;2023-05-10T10:06:39;10.15;;;4.32;;
79454;SDS011;68900;52.134;5.420;2023-05-10T10:09:07;12.45;;;4.25;;
79454;SDS011;68900;52.134;5.420;2023-05-10T10:11:38;9.15;;;4.50;;
79454;SDS011;68900;52.134;5.420;2023-05-10T10:14:07;10.20;;;4.35;;
79454;SDS011;68900;52.134;5.420;2023-05-10T10:22:37;7.18;;;3.85;;
79454;SDS011;68900;52.134;5.420;2023-05-10T10:25:38;9.52;;;3.92;;
79454;SDS011;68900;52.134;5.420;2023-05-10T10:28:21;9.55;;;4.70;;
79454;SDS011;68900;52.134;5.420;2023-05-10T10:31:32;9.18;;;4.50;;
79454;SDS011;68900;52.134;5.420;2023-05-10T10:34:09;9.98;;;4.32;;
79454;SDS011;68900;52.134;5.420;2023-05-10T10:36:44;9.68;;;4.57;;
79454;SDS011;68900;52.134;5.420;2023-05-10T10:39:17;9.02;;;4.55;;
79454;SDS011;68900;52.134;5.420;2023-05-10T10:41:50;10.38;;;4.82;;
79454;SDS011;68900;52.134;5.420;2023-05-10T10:50:55;10.85;;;4.70;;
79454;SDS011;68900;52.134;5.420;2023-05-10T11:03:24;8.15;;;4.13;;
79454;SDS011;68900;52.134;5.420;2023-05-10T11:05:53;8.30;;;3.97;;
79454;SDS011;68900;52.134;5.420;2023-05-10T11:13:32;9.60;;;4.22;;
79454;SDS011;68900;52.134;5.420;2023-05-10T11:16:23;8.10;;;3.83;;
79454;SDS011;68900;52.134;5.420;2023-05-10T11:18:59;8.88;;;4.10;;
79454;SDS011;68900;52.134;5.420;2023-05-10T11:21:31;9.95;;;4.22;;
79454;SDS011;68900;52.134;5.420;2023-05-10T11:24:26;10.75;;;4.35;;
79454;SDS011;68900;52.134;5.420;2023-05-10T11:26:54;8.88;;;4.22;;
79454;SDS011;68900;52.134;5.420;2023-05-10T11:29:22;9.07;;;4.32;;
79454;SDS011;68900;52.134;5.420;2023-05-10T11:31:50;9.77;;;4.35;;
79454;SDS011;68900;52.134;5.420;2023-05-10T11:34:24;8.23;;;4.15;;
79454;SDS011;68900;52.134;5.420;2023-05-10T11:37:05;13.63;;;4.70;;
79454;SDS011;68900;52.134;5.420;2023-05-10T11:39:37;7.93;;;4.13;;
79454;SDS011;68900;52.134;5.420;2023-05-10T11:42:10;8.05;;;3.83;;
79454;SDS011;68900;52.134;5.420;2023-05-10T12:13:22;6.22;;;2.95;;
79454;SDS011;68900;52.134;5.420;2023-05-10T12:15:48;5.00;;;2.42;;
79454;SDS011;68900;52.134;5.420;2023-05-10T12:18:23;6.93;;;2.75;;
79454;SDS011;68900;52.134;5.420;2023-05-10T12:20:52;5.70;;;2.40;;
79454;SDS011;68900;52.134;5.420;2023-05-10T12:23:32;5.95;;;2.30;;
79454;SDS011;68900;52.134;5.420;2023-05-10T12:26:03;5.28;;;2.25;;
79454;SDS011;68900;52.134;5.420;2023-05-10T12:28:32;6.93;;;2.17;;
79454;SDS011;68900;52.134;5.420;2023-05-10T12:30:59;8.73;;;2.92;;
79454;SDS011;68900;52.134;5.420;2023-05-10T12:33:42;6.45;;;2.90;;
79454;SDS011;68900;52.134;5.420;2023-05-10T12:36:10;5.75;;;2.53;;
79454;SDS011;68900;52.134;5.420;2023-05-10T12:39:01;7.97;;;2.80;;
79454;SDS011;68900;52.134;5.420;2023-05-10T12:41:31;4.35;;;1.90;;
79454;SDS011;68900;52.134;5.420;2023-05-10T12:43:57;5.97;;;2.72;;
79454;SDS011;68900;52.134;5.420;2023-05-10T12:46:36;4.47;;;2.10;;
79454;SDS011;68900;52.134;5.420;2023-05-10T12:49:16;5.63;;;2.13;;
79454;SDS011;68900;52.134;5.420;2023-05-10T12:52:01;5.57;;;2.53;;
79454;SDS011;68900;52.134;5.420;2023-05-10T12:54:30;7.45;;;2.33;;
79454;SDS011;68900;52.134;5.420;2023-05-10T12:56:57;6.40;;;2.35;;
79454;SDS011;68900;52.134;5.420;2023-05-10T12:59:27;9.50;;;2.67;;
79454;SDS011;68900;52.134;5.420;2023-05-10T13:02:05;5.85;;;1.80;;
79454;SDS011;68900;52.134;5.420;2023-05-10T13:04:35;5.97;;;2.25;;
79454;SDS011;68900;52.134;5.420;2023-05-10T13:07:08;5.40;;;2.10;;
79454;SDS011;68900;52.134;5.420;2023-05-10T13:10:48;4.47;;;2.42;;
79454;SDS011;68900;52.134;5.420;2023-05-10T13:13:15;9.73;;;2.50;;
79454;SDS011;68900;52.134;5.420;2023-05-10T13:15:51;5.25;;;2.05;;
79454;SDS011;68900;52.134;5.420;2023-05-10T13:40:35;9.35;;;3.95;;
79454;SDS011;68900;52.134;5.420;2023-05-10T14:01:23;9.32;;;4.35;;
79454;SDS011;68900;52.134;5.420;2023-05-10T14:33:23;10.05;;;4.35;;
79454;SDS011;68900;52.134;5.420;2023-05-10T14:40:02;10.23;;;4.13;;
79454;SDS011;68900;52.134;5.420;2023-05-10T14:42:47;10.60;;;5.10;;
79454;SDS011;68900;52.134;5.420;2023-05-10T14:45:34;9.18;;;4.55;;
79454;SDS011;68900;52.134;5.420;2023-05-10T14:48:14;11.60;;;4.80;;
79454;SDS011;68900;52.134;5.420;2023-05-10T14:50:46;10.88;;;4.75;;
79454;SDS011;68900;52.134;5.420;2023-05-10T14:53:20;11.27;;;4.75;;
79454;SDS011;68900;52.134;5.420;2023-05-10T14:55:51;10.60;;;4.55;;
79454;SDS011;68900;52.134;5.420;2023-05-10T14:58:24;10.07;;;4.78;;
79454;SDS011;68900;52.134;5.420;2023-05-10T15:00:54;13.98;;;4.80;;
79454;SDS011;68900;52.134;5.420;2023-05-10T15:03:23;11.20;;;4.53;;
79454;SDS011;68900;52.134;5.420;2023-05-10T15:05:51;11.13;;;4.95;;
79454;SDS011;68900;52.134;5.420;2023-05-10T15:08:28;9.75;;;4.97;;
79454;SDS011;68900;52.134;5.420;2023-05-10T15:10:59;11.27;;;4.57;;
79454;SDS011;68900;52.134;5.420;2023-05-10T15:13:27;12.52;;;5.10;;
79454;SDS011;68900;52.134;5.420;2023-05-10T15:16:03;13.65;;;5.75;;
79454;SDS011;68900;52.134;5.420;2023-05-10T15:18:33;16.27;;;5.80;;
79454;SDS011;68900;52.134;5.420;2023-05-10T15:21:00;11.13;;;5.38;;
79454;SDS011;68900;52.134;5.420;2023-05-10T15:30:33;13.43;;;4.97;;
79454;SDS011;68900;52.134;5.420;2023-05-10T15:32:59;10.32;;;4.93;;
79454;SDS011;68900;52.134;5.420;2023-05-10T15:35:28;10.57;;;4.60;;
79454;SDS011;68900;52.134;5.420;2023-05-10T15:37:59;12.07;;;5.47;;
79454;SDS011;68900;52.134;5.420;2023-05-10T15:40:26;10.23;;;4.78;;
79454;SDS011;68900;52.134;5.420;2023-05-10T15:42:53;10.52;;;5.20;;
79454;SDS011;68900;52.134;5.420;2023-05-10T15:45:39;10.63;;;4.97;;
79454;SDS011;68900;52.134;5.420;2023-05-10T15:48:10;10.70;;;4.97;;
79454;SDS011;68900;52.134;5.420;2023-05-10T15:50:45;10.48;;;4.80;;
79454;SDS011;68900;52.134;5.420;2023-05-10T15:53:15;9.85;;;4.70;;
79454;SDS011;68900;52.134;5.420;2023-05-10T15:55:42;12.00;;;4.60;;
79454;SDS011;68900;52.134;5.420;2023-05-10T15:58:14;10.10;;;4.70;;
79454;SDS011;68900;52.134;5.420;2023-05-10T16:00:48;10.80;;;4.70;;
79454;SDS011;68900;52.134;5.420;2023-05-10T16:03:22;10.30;;;4.38;;
79454;SDS011;68900;52.134;5.420;2023-05-10T16:05:55;8.40;;;3.97;;
79454;SDS011;68900;52.134;5.420;2023-05-10T16:09:12;10.15;;;4.05;;
79454;SDS011;68900;52.134;5.420;2023-05-10T16:11:39;9.55;;;4.65;;
79454;SDS011;68900;52.134;5.420;2023-05-10T16:14:08;11.40;;;4.47;;
79454;SDS011;68900;52.134;5.420;2023-05-10T16:16:44;9.48;;;4.18;;
79454;SDS011;68900;52.134;5.420;2023-05-10T16:19:17;9.18;;;3.97;;
79454;SDS011;68900;52.134;5.420;2023-05-10T16:21:44;12.13;;;5.00;;
79454;SDS011;68900;52.134;5.420;2023-05-10T16:27:11;8.98;;;4.80;;
79454;SDS011;68900;52.134;5.420;2023-05-10T16:29:39;9.98;;;4.65;;
79454;SDS011;68900;52.134;5.420;2023-05-10T16:32:08;11.10;;;4.80;;
79454;SDS011;68900;52.134;5.420;2023-05-10T16:34:38;10.88;;;4.75;;
79454;SDS011;68900;52.134;5.420;2023-05-10T16:37:06;8.32;;;4.10;;
79454;SDS011;68900;52.134;5.420;2023-05-10T16:39:39;10.15;;;4.13;;
79454;SDS011;68900;52.134;5.420;2023-05-10T16:49:53;11.02;;;4.38;;
79454;SDS011;68900;52.134;5.420;2023-05-10T16:52:19;9.38;;;4.00;;
79454;SDS011;68900;52.134;5.420;2023-05-10T16:54:46;9.40;;;4.30;;
79454;SDS011;68900;52.134;5.420;2023-05-10T16:57:26;8.50;;;3.90;;
79454;SDS011;68900;52.134;5.420;2023-05-10T17:02:31;7.20;;;3.13;;
79454;SDS011;68900;52.134;5.420;2023-05-10T17:05:34;7.82;;;3.05;;
79454;SDS011;68900;52.134;5.420;2023-05-10T17:08:10;7.97;;;3.40;;
79454;SDS011;68900;52.134;5.420;2023-05-10T17:11:03;10.13;;;3.28;;
79454;SDS011;68900;52.134;5.420;2023-05-10T17:13:34;7.25;;;3.20;;
79454;SDS011;68900;52.134;5.420;2023-05-10T17:16:08;8.30;;;3.05;;
79454;SDS011;68900;52.134;5.420;2023-05-10T17:18:39;9.77;;;3.03;;
79454;SDS011;68900;52.134;5.420;2023-05-10T17:23:40;5.85;;;2.72;;
79454;SDS011;68900;52.134;5.420;2023-05-10T17:26:07;7.55;;;3.10;;
79454;SDS011;68900;52.134;5.420;2023-05-10T17:28:46;6.50;;;2.58;;
79454;SDS011;68900;52.134;5.420;2023-05-10T17:37:31;6.55;;;3.15;;
79454;SDS011;68900;52.134;5.420;2023-05-10T17:40:04;8.05;;;3.10;;
79454;SDS011;68900;52.134;5.420;2023-05-10T17:42:35;6.15;;;2.85;;
79454;SDS011;68900;52.134;5.420;2023-05-10T17:45:03;7.22;;;3.25;;
79454;SDS011;68900;52.134;5.420;2023-05-10T17:47:33;7.70;;;3.72;;
79454;SDS011;68900;52.134;5.420;2023-05-10T17:50:04;7.47;;;3.63;;
79454;SDS011;68900;52.134;5.420;2023-05-10T17:52:35;7.22;;;3.47;;
79454;SDS011;68900;52.134;5.420;2023-05-10T17:55:04;8.05;;;4.07;;
79454;SDS011;68900;52.134;5.420;2023-05-10T17:57:32;7.40;;;3.60;;
79454;SDS011;68900;52.134;5.420;2023-05-10T18:00:04;7.88;;;3.75;;
79454;SDS011;68900;52.134;5.420;2023-05-10T18:38:18;10.88;;;4.57;;
79454;SDS011;68900;52.134;5.420;2023-05-10T18:40:51;10.60;;;5.10;;
79454;SDS011;68900;52.134;5.420;2023-05-10T18:50:55;10.15;;;4.78;;
79454;SDS011;68900;52.134;5.420;2023-05-10T18:53:36;9.27;;;4.38;;
79454;SDS011;68900;52.134;5.420;2023-05-10T18:58:38;11.80;;;5.20;;
79454;SDS011;68900;52.134;5.420;2023-05-10T19:01:04;14.02;;;5.55;;
79454;SDS011;68900;52.134;5.420;2023-05-10T19:03:31;8.70;;;4.20;;
79454;SDS011;68900;52.134;5.420;2023-05-10T19:05:57;11.20;;;5.00;;
79454;SDS011;68900;52.134;5.420;2023-05-10T19:08:24;12.23;;;5.22;;
79454;SDS011;68900;52.134;5.420;2023-05-10T20:05:17;13.10;;;7.05;;
79454;SDS011;68900;52.134;5.420;2023-05-10T20:07:44;13.43;;;6.90;;
79454;SDS011;68900;52.134;5.420;2023-05-10T20:10:11;16.33;;;7.47;;
79454;SDS011;68900;52.134;5.420;2023-05-10T20:12:37;14.60;;;6.47;;
79454;SDS011;68900;52.134;5.420;2023-05-10T20:15:05;10.00;;;4.40;;
79454;SDS011;68900;52.134;5.420;2023-05-10T20:17:52;14.13;;;6.60;;
79454;SDS011;68900;52.134;5.420;2023-05-10T20:20:34;13.55;;;5.97;;
79454;SDS011;68900;52.134;5.420;2023-05-10T20:23:24;11.55;;;5.85;;
79454;SDS011;68900;52.134;5.420;2023-05-10T20:25:51;13.38;;;6.30;;
79454;SDS011;68900;52.134;5.420;2023-05-10T20:28:23;12.38;;;5.78;;
79454;SDS011;68900;52.134;5.420;2023-05-10T20:31:07;11.60;;;5.05;;
79454;SDS011;68900;52.134;5.420;2023-05-10T20:33:42;13.88;;;6.40;;
79454;SDS011;68900;52.134;5.420;2023-05-10T20:36:09;12.43;;;6.68;;
79454;SDS011;68900;52.134;5.420;2023-05-10T20:41:11;13.50;;;5.70;;
79454;SDS011;68900;52.134;5.420;2023-05-10T20:43:46;12.35;;;6.75;;
79454;SDS011;68900;52.134;5.420;2023-05-10T20:46:16;15.07;;;7.00;;
79454;SDS011;68900;52.134;5.420;2023-05-10T20:48:43;16.35;;;7.10;;
79454;SDS011;68900;52.134;5.420;2023-05-10T20:51:10;12.77;;;5.82;;
79454;SDS011;68900;52.134;5.420;2023-05-10T20:53:44;14.38;;;7.20;;
79454;SDS011;68900;52.134;5.420;2023-05-10T20:56:11;18.42;;;7.45;;
79454;SDS011;68900;52.134;5.420;2023-05-10T20:58:38;13.60;;;6.95;;
79454;SDS011;68900;52.134;5.420;2023-05-10T21:01:05;13.98;;;6.53;;
79454;SDS011;68900;52.134;5.420;2023-05-10T21:03:41;15.32;;;6.70;;
79454;SDS011;68900;52.134;5.420;2023-05-10T21:06:09;13.68;;;6.68;;
79454;SDS011;68900;52.134;5.420;2023-05-10T21:08:36;15.75;;;7.10;;
79454;SDS011;68900;52.134;5.420;2023-05-10T21:11:06;17.38;;;7.45;;
79454;SDS011;68900;52.134;5.420;2023-05-10T21:13:33;13.40;;;5.90;;
79454;SDS011;68900;52.134;5.420;2023-05-10T21:16:00;14.35;;;7.53;;
79454;SDS011;68900;52.134;5.420;2023-05-10T21:18:27;14.20;;;8.13;;
79454;SDS011;68900;52.134;5.420;2023-05-10T21:20:55;15.63;;;8.38;;
79454;SDS011;68900;52.134;5.420;2023-05-10T21:23:46;18.48;;;8.75;;
79454;SDS011;68900;52.134;5.420;2023-05-10T21:26:14;18.92;;;8.40;;
79454;SDS011;68900;52.134;5.420;2023-05-10T21:29:04;14.70;;;6.78;;
79454;SDS011;68900;52.134;5.420;2023-05-10T21:35:01;12.75;;;5.97;;
79454;SDS011;68900;52.134;5.420;2023-05-10T21:37:27;13.85;;;6.45;;
79454;SDS011;68900;52.134;5.420;2023-05-10T21:39:54;14.43;;;6.22;;
79454;SDS011;68900;52.134;5.420;2023-05-10T21:42:34;13.63;;;6.10;;
79454;SDS011;68900;52.134;5.420;2023-05-10T21:45:06;14.57;;;6.25;;
79454;SDS011;68900;52.134;5.420;2023-05-10T21:47:37;16.33;;;7.22;;
79454;SDS011;68900;52.134;5.420;2023-05-10T21:50:05;14.57;;;6.35;;
79454;SDS011;68900;52.134;5.420;2023-05-10T21:52:37;14.15;;;6.30;;
79454;SDS011;68900;52.134;5.420;2023-05-10T21:55:07;13.43;;;5.90;;
79454;SDS011;68900;52.134;5.420;2023-05-10T21:57:35;15.60;;;7.05;;
79454;SDS011;68900;52.134;5.420;2023-05-10T22:00:07;23.90;;;10.38;;
79454;SDS011;68900;52.134;5.420;2023-05-10T22:02:36;18.67;;;9.00;;
79454;SDS011;68900;52.134;5.420;2023-05-10T22:05:03;15.15;;;7.22;;
79454;SDS011;68900;52.134;5.420;2023-05-10T22:07:31;12.77;;;6.30;;
79454;SDS011;68900;52.134;5.420;2023-05-10T22:09:58;13.35;;;6.50;;
79454;SDS011;68900;52.134;5.420;2023-05-10T22:12:25;13.63;;;6.80;;
79454;SDS011;68900;52.134;5.420;2023-05-10T22:14:59;14.63;;;7.00;;
79454;SDS011;68900;52.134;5.420;2023-05-10T22:17:39;14.95;;;6.75;;
79454;SDS011;68900;52.134;5.420;2023-05-10T22:20:06;15.45;;;6.80;;
79454;SDS011;68900;52.134;5.420;2023-05-10T22:22:35;15.38;;;7.38;;
79454;SDS011;68900;52.134;5.420;2023-05-10T22:27:36;13.38;;;6.25;;
79454;SDS011;68900;52.134;5.420;2023-05-10T22:30:10;14.98;;;6.65;;
79454;SDS011;68900;52.134;5.420;2023-05-10T22:32:39;13.00;;;6.05;;
79454;SDS011;68900;52.134;5.420;2023-05-10T22:35:06;13.52;;;6.47;;
79454;SDS011;68900;52.134;5.420;2023-05-10T22:37:40;16.27;;;6.65;;
79454;SDS011;68900;52.134;5.420;2023-05-10T22:40:07;16.20;;;6.55;;
79454;SDS011;68900;52.134;5.420;2023-05-10T22:42:39;15.98;;;6.55;;
79454;SDS011;68900;52.134;5.420;2023-05-10T22:45:13;14.63;;;6.60;;
79454;SDS011;68900;52.134;5.420;2023-05-10T22:47:41;14.23;;;6.32;;
79454;SDS011;68900;52.134;5.420;2023-05-10T22:50:14;12.98;;;5.82;;
79454;SDS011;68900;52.134;5.420;2023-05-10T22:52:47;12.68;;;5.32;;
79454;SDS011;68900;52.134;5.420;2023-05-10T22:55:17;15.63;;;6.57;;
79454;SDS011;68900;52.134;5.420;2023-05-10T22:57:54;16.15;;;6.78;;
79454;SDS011;68900;52.134;5.420;2023-05-10T23:00:27;14.90;;;6.70;;
79454;SDS011;68900;52.134;5.420;2023-05-10T23:02:55;13.93;;;6.13;;
79454;SDS011;68900;52.134;5.420;2023-05-10T23:05:28;16.30;;;7.03;;
79454;SDS011;68900;52.134;5.420;2023-05-10T23:07:55;15.38;;;7.15;;
79454;SDS011;68900;52.134;5.420;2023-05-10T23:10:38;17.08;;;6.85;;
79454;SDS011;68900;52.134;5.420;2023-05-10T23:13:12;14.13;;;6.75;;
79454;SDS011;68900;52.134;5.420;2023-05-10T23:15:46;18.05;;;7.22;;
79454;SDS011;68900;52.134;5.420;2023-05-10T23:30:53;19.08;;;7.35;;
79454;SDS011;68900;52.134;5.420;2023-05-10T23:37:31;15.93;;;6.93;;
79454;SDS011;68900;52.134;5.420;2023-05-10T23:40:12;16.50;;;7.43;;
79454;SDS011;68900;52.134;5.420;2023-05-10T23:42:44;17.13;;;7.35;;
79454;SDS011;68900;52.134;5.420;2023-05-10T23:45:11;18.90;;;8.40;;
79454;SDS011;68900;52.134;5.420;2023-05-10T23:47:38;18.90;;;7.60;;
79454;SDS011;68900;52.134;5.420;2023-05-10T23:50:10;16.80;;;7.50;;
